sensor_id;sensor_type;location;lat;lon;timestamp;P1;durP1;ratioP1;P2;durP2;ratioP2
66886;SDS011;53798;51.680;5.976;2022-12-20T00:01:32;2.65;;;1.70;;
66886;SDS011;53798;51.680;5.976;2022-12-20T00:04:01;3.63;;;1.60;;
66886;SDS011;53798;51.680;5.976;2022-12-20T00:06:34;5.15;;;2.10;;
66886;SDS011;53798;51.680;5.976;2022-12-20T00:09:03;2.97;;;1.60;;
66886;SDS011;53798;51.680;5.976;2022-12-20T00:11:33;2.80;;;1.60;;
66886;SDS011;53798;51.680;5.976;2022-12-20T00:14:04;3.08;;;1.85;;
66886;SDS011;53798;51.680;5.976;2022-12-20T00:16:31;4.30;;;1.80;;
66886;SDS011;53798;51.680;5.976;2022-12-20T00:18:59;3.95;;;1.98;;
66886;SDS011;53798;51.680;5.976;2022-12-20T00:21:29;3.15;;;1.98;;
66886;SDS011;53798;51.680;5.976;2022-12-20T00:23:59;3.35;;;1.85;;
66886;SDS011;53798;51.680;5.976;2022-12-20T00:26:27;5.10;;;1.92;;
66886;SDS011;53798;51.680;5.976;2022-12-20T00:28:57;6.10;;;1.92;;
66886;SDS011;53798;51.680;5.976;2022-12-20T00:31:27;4.68;;;1.70;;
66886;SDS011;53798;51.680;5.976;2022-12-20T00:33:56;4.82;;;1.80;;
66886;SDS011;53798;51.680;5.976;2022-12-20T00:36:26;3.75;;;2.00;;
66886;SDS011;53798;51.680;5.976;2022-12-20T00:38:56;2.30;;;1.45;;
66886;SDS011;53798;51.680;5.976;2022-12-20T00:41:27;3.60;;;1.77;;
66886;SDS011;53798;51.680;5.976;2022-12-20T00:43:57;3.55;;;1.77;;
66886;SDS011;53798;51.680;5.976;2022-12-20T00:46:24;4.15;;;1.80;;
66886;SDS011;53798;51.680;5.976;2022-12-20T00:48:52;3.13;;;1.70;;
66886;SDS011;53798;51.680;5.976;2022-12-20T00:51:25;3.88;;;1.60;;
66886;SDS011;53798;51.680;5.976;2022-12-20T00:53:55;5.25;;;1.75;;
66886;SDS011;53798;51.680;5.976;2022-12-20T00:56:24;2.47;;;1.80;;
66886;SDS011;53798;51.680;5.976;2022-12-20T00:58:54;3.35;;;1.70;;
66886;SDS011;53798;51.680;5.976;2022-12-20T01:01:27;2.35;;;1.90;;
66886;SDS011;53798;51.680;5.976;2022-12-20T01:03:58;3.55;;;1.88;;
66886;SDS011;53798;51.680;5.976;2022-12-20T01:06:26;3.58;;;1.77;;
66886;SDS011;53798;51.680;5.976;2022-12-20T01:08:54;4.22;;;2.08;;
66886;SDS011;53798;51.680;5.976;2022-12-20T01:11:23;3.40;;;1.83;;
66886;SDS011;53798;51.680;5.976;2022-12-20T01:13:57;5.35;;;2.00;;
66886;SDS011;53798;51.680;5.976;2022-12-20T01:16:34;3.95;;;1.95;;
66886;SDS011;53798;51.680;5.976;2022-12-20T01:19:05;3.08;;;1.70;;
66886;SDS011;53798;51.680;5.976;2022-12-20T01:21:35;4.75;;;2.20;;
66886;SDS011;53798;51.680;5.976;2022-12-20T01:24:03;4.22;;;1.40;;
66886;SDS011;53798;51.680;5.976;2022-12-20T01:26:31;3.00;;;1.60;;
66886;SDS011;53798;51.680;5.976;2022-12-20T01:28:58;4.22;;;1.60;;
66886;SDS011;53798;51.680;5.976;2022-12-20T01:31:27;2.90;;;1.58;;
66886;SDS011;53798;51.680;5.976;2022-12-20T01:33:56;2.17;;;1.40;;
66886;SDS011;53798;51.680;5.976;2022-12-20T01:36:25;3.30;;;1.55;;
66886;SDS011;53798;51.680;5.976;2022-12-20T01:38:58;3.50;;;1.67;;
66886;SDS011;53798;51.680;5.976;2022-12-20T01:41:32;4.10;;;1.75;;
66886;SDS011;53798;51.680;5.976;2022-12-20T01:44:03;3.60;;;1.77;;
66886;SDS011;53798;51.680;5.976;2022-12-20T01:46:54;4.15;;;1.80;;
66886;SDS011;53798;51.680;5.976;2022-12-20T01:54:47;3.63;;;1.83;;
66886;SDS011;53798;51.680;5.976;2022-12-20T01:57:48;3.20;;;1.80;;
66886;SDS011;53798;51.680;5.976;2022-12-20T02:00:24;4.65;;;2.05;;
66886;SDS011;53798;51.680;5.976;2022-12-20T02:02:51;2.90;;;1.90;;
66886;SDS011;53798;51.680;5.976;2022-12-20T02:05:21;4.88;;;2.10;;
66886;SDS011;53798;51.680;5.976;2022-12-20T02:07:50;3.83;;;2.13;;
66886;SDS011;53798;51.680;5.976;2022-12-20T02:10:22;3.97;;;2.10;;
66886;SDS011;53798;51.680;5.976;2022-12-20T02:13:06;4.00;;;2.45;;
66886;SDS011;53798;51.680;5.976;2022-12-20T02:15:50;3.47;;;2.20;;
66886;SDS011;53798;51.680;5.976;2022-12-20T02:18:23;3.97;;;2.33;;
66886;SDS011;53798;51.680;5.976;2022-12-20T02:32:56;3.92;;;2.38;;
66886;SDS011;53798;51.680;5.976;2022-12-20T02:35:31;5.32;;;2.65;;
66886;SDS011;53798;51.680;5.976;2022-12-20T02:38:03;3.05;;;2.33;;
66886;SDS011;53798;51.680;5.976;2022-12-20T02:40:56;6.00;;;2.70;;
66886;SDS011;53798;51.680;5.976;2022-12-20T02:43:41;3.38;;;2.38;;
66886;SDS011;53798;51.680;5.976;2022-12-20T02:46:33;4.22;;;2.40;;
66886;SDS011;53798;51.680;5.976;2022-12-20T02:49:04;4.72;;;2.70;;
66886;SDS011;53798;51.680;5.976;2022-12-20T02:51:40;3.40;;;2.45;;
66886;SDS011;53798;51.680;5.976;2022-12-20T02:54:11;4.75;;;2.47;;
66886;SDS011;53798;51.680;5.976;2022-12-20T02:56:40;5.63;;;2.90;;
66886;SDS011;53798;51.680;5.976;2022-12-20T02:59:36;6.47;;;2.50;;
66886;SDS011;53798;51.680;5.976;2022-12-20T03:02:14;4.80;;;2.60;;
66886;SDS011;53798;51.680;5.976;2022-12-20T03:04:42;6.20;;;3.05;;
66886;SDS011;53798;51.680;5.976;2022-12-20T03:07:11;7.30;;;2.90;;
66886;SDS011;53798;51.680;5.976;2022-12-20T03:09:41;4.07;;;2.65;;
66886;SDS011;53798;51.680;5.976;2022-12-20T03:12:12;4.25;;;2.80;;
66886;SDS011;53798;51.680;5.976;2022-12-20T03:14:41;6.20;;;2.53;;
66886;SDS011;53798;51.680;5.976;2022-12-20T03:17:11;4.43;;;2.50;;
66886;SDS011;53798;51.680;5.976;2022-12-20T03:19:38;5.05;;;2.42;;
66886;SDS011;53798;51.680;5.976;2022-12-20T03:22:05;4.22;;;2.30;;
66886;SDS011;53798;51.680;5.976;2022-12-20T03:24:33;4.18;;;2.20;;
66886;SDS011;53798;51.680;5.976;2022-12-20T03:27:04;5.45;;;2.58;;
66886;SDS011;53798;51.680;5.976;2022-12-20T03:29:32;3.92;;;2.28;;
66886;SDS011;53798;51.680;5.976;2022-12-20T03:31:59;4.03;;;2.45;;
66886;SDS011;53798;51.680;5.976;2022-12-20T03:34:26;5.93;;;2.67;;
66886;SDS011;53798;51.680;5.976;2022-12-20T03:36:53;4.15;;;2.63;;
66886;SDS011;53798;51.680;5.976;2022-12-20T03:39:20;3.60;;;2.20;;
66886;SDS011;53798;51.680;5.976;2022-12-20T03:41:50;2.90;;;2.45;;
66886;SDS011;53798;51.680;5.976;2022-12-20T03:44:18;5.13;;;2.30;;
66886;SDS011;53798;51.680;5.976;2022-12-20T03:46:45;2.95;;;2.03;;
66886;SDS011;53798;51.680;5.976;2022-12-20T03:49:12;3.25;;;2.00;;
66886;SDS011;53798;51.680;5.976;2022-12-20T03:51:45;3.53;;;2.03;;
66886;SDS011;53798;51.680;5.976;2022-12-20T03:54:12;4.55;;;2.20;;
66886;SDS011;53798;51.680;5.976;2022-12-20T03:56:56;3.72;;;2.03;;
66886;SDS011;53798;51.680;5.976;2022-12-20T03:59:23;2.10;;;1.70;;
66886;SDS011;53798;51.680;5.976;2022-12-20T04:01:53;3.70;;;2.00;;
66886;SDS011;53798;51.680;5.976;2022-12-20T04:04:20;8.00;;;2.00;;
66886;SDS011;53798;51.680;5.976;2022-12-20T04:06:47;6.88;;;1.88;;
66886;SDS011;53798;51.680;5.976;2022-12-20T04:09:14;3.97;;;1.98;;
66886;SDS011;53798;51.680;5.976;2022-12-20T04:11:47;4.35;;;2.05;;
66886;SDS011;53798;51.680;5.976;2022-12-20T04:14:15;5.32;;;2.13;;
66886;SDS011;53798;51.680;5.976;2022-12-20T04:16:43;2.58;;;1.83;;
66886;SDS011;53798;51.680;5.976;2022-12-20T04:19:10;6.32;;;2.10;;
66886;SDS011;53798;51.680;5.976;2022-12-20T04:21:44;3.50;;;1.87;;
66886;SDS011;53798;51.680;5.976;2022-12-20T04:24:12;3.70;;;2.35;;
66886;SDS011;53798;51.680;5.976;2022-12-20T04:26:44;3.00;;;1.67;;
66886;SDS011;53798;51.680;5.976;2022-12-20T04:29:12;3.33;;;1.70;;
66886;SDS011;53798;51.680;5.976;2022-12-20T04:31:41;3.55;;;1.67;;
66886;SDS011;53798;51.680;5.976;2022-12-20T04:34:09;5.68;;;2.00;;
66886;SDS011;53798;51.680;5.976;2022-12-20T04:36:37;2.80;;;1.60;;
66886;SDS011;53798;51.680;5.976;2022-12-20T04:39:08;3.22;;;1.75;;
66886;SDS011;53798;51.680;5.976;2022-12-20T04:42:10;3.17;;;1.77;;
66886;SDS011;53798;51.680;5.976;2022-12-20T04:44:37;4.72;;;2.00;;
66886;SDS011;53798;51.680;5.976;2022-12-20T04:47:04;3.97;;;1.80;;
66886;SDS011;53798;51.680;5.976;2022-12-20T04:49:32;4.53;;;1.80;;
66886;SDS011;53798;51.680;5.976;2022-12-20T04:51:59;3.22;;;1.88;;
66886;SDS011;53798;51.680;5.976;2022-12-20T04:54:47;3.92;;;1.90;;
66886;SDS011;53798;51.680;5.976;2022-12-20T04:57:24;4.43;;;2.00;;
66886;SDS011;53798;51.680;5.976;2022-12-20T04:59:51;3.83;;;1.90;;
66886;SDS011;53798;51.680;5.976;2022-12-20T05:02:18;2.90;;;1.80;;
66886;SDS011;53798;51.680;5.976;2022-12-20T05:04:50;3.25;;;1.83;;
66886;SDS011;53798;51.680;5.976;2022-12-20T05:07:18;3.78;;;1.70;;
66886;SDS011;53798;51.680;5.976;2022-12-20T05:09:53;6.57;;;2.17;;
66886;SDS011;53798;51.680;5.976;2022-12-20T05:12:20;2.75;;;1.80;;
66886;SDS011;53798;51.680;5.976;2022-12-20T05:14:47;4.10;;;2.03;;
66886;SDS011;53798;51.680;5.976;2022-12-20T05:17:18;3.28;;;1.85;;
66886;SDS011;53798;51.680;5.976;2022-12-20T05:22:15;3.33;;;1.90;;
66886;SDS011;53798;51.680;5.976;2022-12-20T05:25:11;4.60;;;2.03;;
66886;SDS011;53798;51.680;5.976;2022-12-20T05:28:02;2.58;;;1.80;;
66886;SDS011;53798;51.680;5.976;2022-12-20T05:30:33;4.13;;;2.05;;
66886;SDS011;53798;51.680;5.976;2022-12-20T05:33:00;4.15;;;2.17;;
66886;SDS011;53798;51.680;5.976;2022-12-20T05:35:29;5.18;;;2.15;;
66886;SDS011;53798;51.680;5.976;2022-12-20T05:38:02;4.28;;;2.05;;
66886;SDS011;53798;51.680;5.976;2022-12-20T05:40:31;4.35;;;2.00;;
66886;SDS011;53798;51.680;5.976;2022-12-20T05:42:58;3.08;;;1.90;;
66886;SDS011;53798;51.680;5.976;2022-12-20T05:45:47;1.98;;;1.55;;
66886;SDS011;53798;51.680;5.976;2022-12-20T05:48:23;4.90;;;2.00;;
66886;SDS011;53798;51.680;5.976;2022-12-20T05:50:51;5.35;;;2.05;;
66886;SDS011;53798;51.680;5.976;2022-12-20T05:53:21;5.13;;;2.00;;
66886;SDS011;53798;51.680;5.976;2022-12-20T05:55:52;3.08;;;1.83;;
66886;SDS011;53798;51.680;5.976;2022-12-20T05:58:24;3.08;;;1.58;;
66886;SDS011;53798;51.680;5.976;2022-12-20T06:00:58;3.55;;;1.80;;
66886;SDS011;53798;51.680;5.976;2022-12-20T06:03:30;3.63;;;1.75;;
66886;SDS011;53798;51.680;5.976;2022-12-20T06:05:58;3.72;;;1.80;;
66886;SDS011;53798;51.680;5.976;2022-12-20T06:08:29;4.05;;;1.85;;
66886;SDS011;53798;51.680;5.976;2022-12-20T06:10:57;6.32;;;2.00;;
66886;SDS011;53798;51.680;5.976;2022-12-20T06:13:25;3.33;;;1.90;;
66886;SDS011;53798;51.680;5.976;2022-12-20T06:15:53;2.35;;;1.90;;
66886;SDS011;53798;51.680;5.976;2022-12-20T06:18:20;3.50;;;1.65;;
66886;SDS011;53798;51.680;5.976;2022-12-20T06:21:00;3.80;;;1.98;;
66886;SDS011;53798;51.680;5.976;2022-12-20T06:23:28;4.78;;;1.90;;
66886;SDS011;53798;51.680;5.976;2022-12-20T06:26:04;4.10;;;1.50;;
66886;SDS011;53798;51.680;5.976;2022-12-20T06:28:40;7.13;;;2.05;;
66886;SDS011;53798;51.680;5.976;2022-12-20T06:31:19;3.78;;;1.67;;
66886;SDS011;53798;51.680;5.976;2022-12-20T06:33:51;3.83;;;1.95;;
66886;SDS011;53798;51.680;5.976;2022-12-20T06:36:20;2.65;;;1.63;;
66886;SDS011;53798;51.680;5.976;2022-12-20T06:38:47;4.85;;;1.90;;
66886;SDS011;53798;51.680;5.976;2022-12-20T06:41:14;3.67;;;2.05;;
66886;SDS011;53798;51.680;5.976;2022-12-20T06:43:45;4.00;;;1.80;;
66886;SDS011;53798;51.680;5.976;2022-12-20T06:46:12;5.28;;;2.20;;
66886;SDS011;53798;51.680;5.976;2022-12-20T06:48:39;4.13;;;1.75;;
66886;SDS011;53798;51.680;5.976;2022-12-20T06:51:08;4.15;;;1.90;;
66886;SDS011;53798;51.680;5.976;2022-12-20T06:53:37;3.35;;;1.80;;
66886;SDS011;53798;51.680;5.976;2022-12-20T06:56:04;4.38;;;1.85;;
66886;SDS011;53798;51.680;5.976;2022-12-20T06:58:31;4.95;;;1.83;;
66886;SDS011;53798;51.680;5.976;2022-12-20T07:00:58;3.28;;;1.80;;
66886;SDS011;53798;51.680;5.976;2022-12-20T07:03:26;3.35;;;1.80;;
66886;SDS011;53798;51.680;5.976;2022-12-20T07:05:54;4.03;;;1.70;;
66886;SDS011;53798;51.680;5.976;2022-12-20T07:08:23;3.85;;;1.70;;
66886;SDS011;53798;51.680;5.976;2022-12-20T07:10:51;2.42;;;1.65;;
66886;SDS011;53798;51.680;5.976;2022-12-20T07:13:19;3.72;;;1.70;;
66886;SDS011;53798;51.680;5.976;2022-12-20T07:15:47;4.68;;;1.90;;
66886;SDS011;53798;51.680;5.976;2022-12-20T07:18:14;5.07;;;1.77;;
66886;SDS011;53798;51.680;5.976;2022-12-20T07:20:41;3.83;;;1.92;;
66886;SDS011;53798;51.680;5.976;2022-12-20T07:23:08;3.33;;;1.77;;
66886;SDS011;53798;51.680;5.976;2022-12-20T07:25:35;5.72;;;2.05;;
66886;SDS011;53798;51.680;5.976;2022-12-20T07:28:02;2.58;;;1.60;;
66886;SDS011;53798;51.680;5.976;2022-12-20T07:30:29;4.72;;;2.10;;
66886;SDS011;53798;51.680;5.976;2022-12-20T07:32:57;5.65;;;1.73;;
66886;SDS011;53798;51.680;5.976;2022-12-20T07:35:24;5.05;;;1.90;;
66886;SDS011;53798;51.680;5.976;2022-12-20T07:37:52;3.50;;;1.70;;
66886;SDS011;53798;51.680;5.976;2022-12-20T07:40:19;3.80;;;1.98;;
66886;SDS011;53798;51.680;5.976;2022-12-20T07:42:46;4.95;;;1.95;;
66886;SDS011;53798;51.680;5.976;2022-12-20T07:45:14;4.80;;;2.00;;
66886;SDS011;53798;51.680;5.976;2022-12-20T07:47:42;4.90;;;1.90;;
66886;SDS011;53798;51.680;5.976;2022-12-20T07:50:10;2.70;;;1.52;;
66886;SDS011;53798;51.680;5.976;2022-12-20T07:52:37;4.72;;;1.77;;
66886;SDS011;53798;51.680;5.976;2022-12-20T07:55:10;3.55;;;1.70;;
66886;SDS011;53798;51.680;5.976;2022-12-20T08:00:37;3.00;;;1.70;;
66886;SDS011;53798;51.680;5.976;2022-12-20T08:03:05;4.03;;;2.53;;
66886;SDS011;53798;51.680;5.976;2022-12-20T08:08:21;5.28;;;1.90;;
66886;SDS011;53798;51.680;5.976;2022-12-20T08:10:51;3.55;;;2.13;;
66886;SDS011;53798;51.680;5.976;2022-12-20T08:13:18;4.47;;;2.83;;
66886;SDS011;53798;51.680;5.976;2022-12-20T08:15:45;3.85;;;1.83;;
66886;SDS011;53798;51.680;5.976;2022-12-20T08:18:12;4.43;;;2.00;;
66886;SDS011;53798;51.680;5.976;2022-12-20T08:20:39;2.25;;;1.40;;
66886;SDS011;53798;51.680;5.976;2022-12-20T08:23:06;6.18;;;2.60;;
66886;SDS011;53798;51.680;5.976;2022-12-20T08:25:33;5.00;;;1.50;;
66886;SDS011;53798;51.680;5.976;2022-12-20T08:28:07;5.18;;;1.90;;
66886;SDS011;53798;51.680;5.976;2022-12-20T08:30:35;5.40;;;1.90;;
66886;SDS011;53798;51.680;5.976;2022-12-20T08:33:02;6.63;;;1.70;;
66886;SDS011;53798;51.680;5.976;2022-12-20T08:35:32;6.47;;;1.60;;
66886;SDS011;53798;51.680;5.976;2022-12-20T08:38:00;5.47;;;1.70;;
66886;SDS011;53798;51.680;5.976;2022-12-20T08:40:29;4.20;;;1.50;;
66886;SDS011;53798;51.680;5.976;2022-12-20T08:42:57;1.77;;;1.20;;
66886;SDS011;53798;51.680;5.976;2022-12-20T08:45:27;3.30;;;1.40;;
66886;SDS011;53798;51.680;5.976;2022-12-20T08:47:54;3.45;;;1.50;;
66886;SDS011;53798;51.680;5.976;2022-12-20T08:50:21;40.53;;;26.05;;
66886;SDS011;53798;51.680;5.976;2022-12-20T08:52:48;4.75;;;3.90;;
66886;SDS011;53798;51.680;5.976;2022-12-20T08:55:15;7.13;;;5.90;;
66886;SDS011;53798;51.680;5.976;2022-12-20T08:57:42;30.17;;;25.08;;
66886;SDS011;53798;51.680;5.976;2022-12-20T09:00:10;6.18;;;3.60;;
66886;SDS011;53798;51.680;5.976;2022-12-20T09:02:37;6.32;;;4.55;;
66886;SDS011;53798;51.680;5.976;2022-12-20T09:05:07;13.68;;;9.68;;
66886;SDS011;53798;51.680;5.976;2022-12-20T09:07:34;16.70;;;11.35;;
66886;SDS011;53798;51.680;5.976;2022-12-20T09:10:01;32.00;;;18.65;;
66886;SDS011;53798;51.680;5.976;2022-12-20T09:12:29;39.08;;;25.10;;
66886;SDS011;53798;51.680;5.976;2022-12-20T09:14:56;34.55;;;24.02;;
66886;SDS011;53798;51.680;5.976;2022-12-20T09:17:23;24.50;;;15.73;;
66886;SDS011;53798;51.680;5.976;2022-12-20T09:19:50;113.22;;;51.53;;
66886;SDS011;53798;51.680;5.976;2022-12-20T09:22:17;218.85;;;86.82;;
66886;SDS011;53798;51.680;5.976;2022-12-20T09:24:44;115.22;;;67.30;;
66886;SDS011;53798;51.680;5.976;2022-12-20T09:27:11;105.45;;;61.35;;
66886;SDS011;53798;51.680;5.976;2022-12-20T09:29:38;50.15;;;35.97;;
66886;SDS011;53798;51.680;5.976;2022-12-20T09:32:05;119.50;;;89.28;;
66886;SDS011;53798;51.680;5.976;2022-12-20T09:34:32;32.40;;;26.13;;
66886;SDS011;53798;51.680;5.976;2022-12-20T09:36:59;16.30;;;8.85;;
66886;SDS011;53798;51.680;5.976;2022-12-20T09:39:27;15.98;;;11.68;;
66886;SDS011;53798;51.680;5.976;2022-12-20T09:41:54;26.48;;;18.67;;
66886;SDS011;53798;51.680;5.976;2022-12-20T09:44:25;17.85;;;11.75;;
66886;SDS011;53798;51.680;5.976;2022-12-20T09:47:04;20.73;;;17.30;;
66886;SDS011;53798;51.680;5.976;2022-12-20T09:49:42;22.27;;;19.40;;
66886;SDS011;53798;51.680;5.976;2022-12-20T09:55:30;9.00;;;7.35;;
66886;SDS011;53798;51.680;5.976;2022-12-20T10:01:19;29.70;;;22.60;;
66886;SDS011;53798;51.680;5.976;2022-12-20T10:03:52;13.65;;;10.68;;
66886;SDS011;53798;51.680;5.976;2022-12-20T10:06:26;16.98;;;12.57;;
66886;SDS011;53798;51.680;5.976;2022-12-20T10:15:12;8.55;;;5.72;;
66886;SDS011;53798;51.680;5.976;2022-12-20T10:24:15;3.72;;;2.20;;
66886;SDS011;53798;51.680;5.976;2022-12-20T10:26:50;3.92;;;2.15;;
66886;SDS011;53798;51.680;5.976;2022-12-20T10:29:18;7.93;;;5.35;;
66886;SDS011;53798;51.680;5.976;2022-12-20T10:31:48;5.50;;;3.42;;
66886;SDS011;53798;51.680;5.976;2022-12-20T10:34:24;5.82;;;2.83;;
66886;SDS011;53798;51.680;5.976;2022-12-20T10:39:42;7.32;;;5.28;;
66886;SDS011;53798;51.680;5.976;2022-12-20T10:42:30;6.05;;;3.30;;
66886;SDS011;53798;51.680;5.976;2022-12-20T10:47:42;3.70;;;2.40;;
66886;SDS011;53798;51.680;5.976;2022-12-20T10:50:18;3.03;;;1.60;;
66886;SDS011;53798;51.680;5.976;2022-12-20T10:55:38;6.32;;;2.05;;
66886;SDS011;53798;51.680;5.976;2022-12-20T11:00:48;3.03;;;1.90;;
66886;SDS011;53798;51.680;5.976;2022-12-20T11:08:31;242.20;;;87.55;;
66886;SDS011;53798;51.680;5.976;2022-12-20T11:13:45;14.02;;;9.20;;
66886;SDS011;53798;51.680;5.976;2022-12-20T11:16:24;12.35;;;9.65;;
66886;SDS011;53798;51.680;5.976;2022-12-20T11:18:59;7.13;;;4.57;;
66886;SDS011;53798;51.680;5.976;2022-12-20T11:21:57;5.63;;;3.00;;
66886;SDS011;53798;51.680;5.976;2022-12-20T11:28:33;5.82;;;4.22;;
66886;SDS011;53798;51.680;5.976;2022-12-20T11:31:24;5.95;;;3.20;;
66886;SDS011;53798;51.680;5.976;2022-12-20T11:34:14;11.15;;;9.68;;
66886;SDS011;53798;51.680;5.976;2022-12-20T11:39:56;9.48;;;6.00;;
66886;SDS011;53798;51.680;5.976;2022-12-20T11:42:46;13.07;;;11.07;;
66886;SDS011;53798;51.680;5.976;2022-12-20T11:45:22;17.40;;;13.57;;
66886;SDS011;53798;51.680;5.976;2022-12-20T11:51:02;3.55;;;2.05;;
66886;SDS011;53798;51.680;5.976;2022-12-20T11:57:00;3.70;;;2.30;;
66886;SDS011;53798;51.680;5.976;2022-12-20T11:59:47;5.07;;;2.42;;
66886;SDS011;53798;51.680;5.976;2022-12-20T12:02:30;5.80;;;2.60;;
66886;SDS011;53798;51.680;5.976;2022-12-20T12:08:13;8.52;;;5.70;;
66886;SDS011;53798;51.680;5.976;2022-12-20T12:10:55;7.35;;;3.55;;
66886;SDS011;53798;51.680;5.976;2022-12-20T12:13:30;7.70;;;3.28;;
66886;SDS011;53798;51.680;5.976;2022-12-20T12:16:08;5.30;;;2.85;;
66886;SDS011;53798;51.680;5.976;2022-12-20T12:18:43;7.25;;;4.60;;
66886;SDS011;53798;51.680;5.976;2022-12-20T12:24:06;7.53;;;4.63;;
66886;SDS011;53798;51.680;5.976;2022-12-20T12:26:37;20.48;;;14.77;;
66886;SDS011;53798;51.680;5.976;2022-12-20T12:29:13;13.90;;;7.00;;
66886;SDS011;53798;51.680;5.976;2022-12-20T12:32:02;5.75;;;3.50;;
66886;SDS011;53798;51.680;5.976;2022-12-20T12:38:15;6.97;;;2.70;;
66886;SDS011;53798;51.680;5.976;2022-12-20T12:46:44;4.60;;;2.55;;
66886;SDS011;53798;51.680;5.976;2022-12-20T12:49:21;4.95;;;2.70;;
66886;SDS011;53798;51.680;5.976;2022-12-20T12:51:54;5.97;;;2.58;;
66886;SDS011;53798;51.680;5.976;2022-12-20T12:57:06;5.05;;;2.47;;
66886;SDS011;53798;51.680;5.976;2022-12-20T12:59:41;5.93;;;3.00;;
66886;SDS011;53798;51.680;5.976;2022-12-20T13:17:56;11.13;;;9.25;;
66886;SDS011;53798;51.680;5.976;2022-12-20T13:20:27;6.90;;;3.35;;
66886;SDS011;53798;51.680;5.976;2022-12-20T13:25:55;11.95;;;8.98;;
66886;SDS011;53798;51.680;5.976;2022-12-20T13:38:53;6.43;;;4.43;;
66886;SDS011;53798;51.680;5.976;2022-12-20T13:41:36;4.85;;;2.97;;
66886;SDS011;53798;51.680;5.976;2022-12-20T13:50:16;6.85;;;2.33;;
66886;SDS011;53798;51.680;5.976;2022-12-20T13:52:50;4.32;;;2.75;;
66886;SDS011;53798;51.680;5.976;2022-12-20T13:55:34;184.43;;;73.82;;
66886;SDS011;53798;51.680;5.976;2022-12-20T13:58:08;153.65;;;69.47;;
66886;SDS011;53798;51.680;5.976;2022-12-20T14:00:44;94.30;;;59.83;;
66886;SDS011;53798;51.680;5.976;2022-12-20T14:03:31;38.28;;;29.63;;
66886;SDS011;53798;51.680;5.976;2022-12-20T14:06:10;7.47;;;5.67;;
66886;SDS011;53798;51.680;5.976;2022-12-20T14:08:45;5.97;;;4.17;;
66886;SDS011;53798;51.680;5.976;2022-12-20T14:11:16;6.07;;;3.30;;
66886;SDS011;53798;51.680;5.976;2022-12-20T14:13:55;6.20;;;3.33;;
66886;SDS011;53798;51.680;5.976;2022-12-20T14:16:31;6.45;;;3.30;;
66886;SDS011;53798;51.680;5.976;2022-12-20T14:19:06;3.63;;;3.00;;
66886;SDS011;53798;51.680;5.976;2022-12-20T14:21:41;5.10;;;3.28;;
66886;SDS011;53798;51.680;5.976;2022-12-20T14:24:16;9.13;;;4.10;;
66886;SDS011;53798;51.680;5.976;2022-12-20T14:26:47;6.22;;;3.75;;
66886;SDS011;53798;51.680;5.976;2022-12-20T14:29:21;5.88;;;3.50;;
66886;SDS011;53798;51.680;5.976;2022-12-20T14:31:56;9.35;;;8.10;;
66886;SDS011;53798;51.680;5.976;2022-12-20T14:34:24;10.77;;;8.45;;
66886;SDS011;53798;51.680;5.976;2022-12-20T14:42:37;8.25;;;5.80;;
66886;SDS011;53798;51.680;5.976;2022-12-20T14:47:36;7.82;;;5.85;;
66886;SDS011;53798;51.680;5.976;2022-12-20T14:50:17;7.07;;;3.90;;
66886;SDS011;53798;51.680;5.976;2022-12-20T14:52:58;6.88;;;2.92;;
66886;SDS011;53798;51.680;5.976;2022-12-20T14:55:31;4.82;;;2.78;;
66886;SDS011;53798;51.680;5.976;2022-12-20T14:58:23;7.57;;;3.03;;
66886;SDS011;53798;51.680;5.976;2022-12-20T15:01:00;4.68;;;2.70;;
66886;SDS011;53798;51.680;5.976;2022-12-20T15:03:53;5.63;;;3.08;;
66886;SDS011;53798;51.680;5.976;2022-12-20T15:06:31;4.55;;;2.85;;
66886;SDS011;53798;51.680;5.976;2022-12-20T15:09:10;5.75;;;3.10;;
66886;SDS011;53798;51.680;5.976;2022-12-20T15:11:37;4.13;;;2.92;;
66886;SDS011;53798;51.680;5.976;2022-12-20T15:14:54;4.60;;;2.80;;
66886;SDS011;53798;51.680;5.976;2022-12-20T15:17:08;5.75;;;2.80;;
66886;SDS011;53798;51.680;5.976;2022-12-20T15:19:39;8.32;;;3.53;;
66886;SDS011;53798;51.680;5.976;2022-12-20T15:22:17;5.60;;;3.00;;
66886;SDS011;53798;51.680;5.976;2022-12-20T15:24:46;100.28;;;48.95;;
66886;SDS011;53798;51.680;5.976;2022-12-20T15:27:13;49.00;;;35.83;;
66886;SDS011;53798;51.680;5.976;2022-12-20T15:29:41;13.45;;;8.77;;
66886;SDS011;53798;51.680;5.976;2022-12-20T15:32:13;7.47;;;4.68;;
66886;SDS011;53798;51.680;5.976;2022-12-20T15:34:55;10.55;;;9.07;;
66886;SDS011;53798;51.680;5.976;2022-12-20T15:37:23;15.95;;;12.48;;
66886;SDS011;53798;51.680;5.976;2022-12-20T15:39:50;15.48;;;12.80;;
66886;SDS011;53798;51.680;5.976;2022-12-20T15:42:17;62.40;;;42.47;;
66886;SDS011;53798;51.680;5.976;2022-12-20T15:44:46;87.90;;;53.55;;
66886;SDS011;53798;51.680;5.976;2022-12-20T15:47:15;55.50;;;37.97;;
66886;SDS011;53798;51.680;5.976;2022-12-20T15:49:43;22.20;;;15.48;;
66886;SDS011;53798;51.680;5.976;2022-12-20T15:52:18;16.53;;;11.93;;
66886;SDS011;53798;51.680;5.976;2022-12-20T15:54:49;19.95;;;15.68;;
66886;SDS011;53798;51.680;5.976;2022-12-20T15:57:16;30.08;;;23.27;;
66886;SDS011;53798;51.680;5.976;2022-12-20T15:59:47;27.42;;;17.00;;
66886;SDS011;53798;51.680;5.976;2022-12-20T16:02:27;15.55;;;12.55;;
66886;SDS011;53798;51.680;5.976;2022-12-20T16:04:57;26.02;;;18.73;;
66886;SDS011;53798;51.680;5.976;2022-12-20T16:07:24;24.23;;;20.65;;
66886;SDS011;53798;51.680;5.976;2022-12-20T16:09:53;14.02;;;9.77;;
66886;SDS011;53798;51.680;5.976;2022-12-20T16:12:24;15.82;;;11.80;;
66886;SDS011;53798;51.680;5.976;2022-12-20T16:14:55;10.57;;;6.38;;
66886;SDS011;53798;51.680;5.976;2022-12-20T16:17:22;19.23;;;16.48;;
66886;SDS011;53798;51.680;5.976;2022-12-20T16:19:50;11.13;;;9.23;;
66886;SDS011;53798;51.680;5.976;2022-12-20T16:22:18;10.98;;;6.28;;
66886;SDS011;53798;51.680;5.976;2022-12-20T16:24:48;9.20;;;4.80;;
66886;SDS011;53798;51.680;5.976;2022-12-20T16:27:16;10.18;;;5.20;;
66886;SDS011;53798;51.680;5.976;2022-12-20T16:29:43;8.45;;;5.88;;
66886;SDS011;53798;51.680;5.976;2022-12-20T16:32:15;5.88;;;4.55;;
66886;SDS011;53798;51.680;5.976;2022-12-20T16:34:45;6.50;;;4.13;;
66886;SDS011;53798;51.680;5.976;2022-12-20T16:37:16;8.57;;;5.43;;
66886;SDS011;53798;51.680;5.976;2022-12-20T16:39:44;9.50;;;7.97;;
66886;SDS011;53798;51.680;5.976;2022-12-20T16:42:15;5.85;;;4.43;;
66886;SDS011;53798;51.680;5.976;2022-12-20T16:44:50;9.38;;;4.72;;
66886;SDS011;53798;51.680;5.976;2022-12-20T16:47:20;10.93;;;4.50;;
66886;SDS011;53798;51.680;5.976;2022-12-20T16:49:48;6.72;;;3.80;;
66886;SDS011;53798;51.680;5.976;2022-12-20T16:52:19;5.28;;;4.03;;
66886;SDS011;53798;51.680;5.976;2022-12-20T16:54:49;7.40;;;4.43;;
66886;SDS011;53798;51.680;5.976;2022-12-20T17:00:09;6.57;;;3.88;;
66886;SDS011;53798;51.680;5.976;2022-12-20T17:02:51;7.03;;;3.80;;
66886;SDS011;53798;51.680;5.976;2022-12-20T17:05:23;7.07;;;3.95;;
66886;SDS011;53798;51.680;5.976;2022-12-20T17:07:55;6.95;;;4.15;;
66886;SDS011;53798;51.680;5.976;2022-12-20T17:10:26;6.70;;;4.00;;
66886;SDS011;53798;51.680;5.976;2022-12-20T17:12:53;16.25;;;8.30;;
66886;SDS011;53798;51.680;5.976;2022-12-20T17:15:22;55.25;;;28.58;;
66886;SDS011;53798;51.680;5.976;2022-12-20T17:17:54;166.05;;;78.70;;
66886;SDS011;53798;51.680;5.976;2022-12-20T17:20:22;12.48;;;7.65;;
66886;SDS011;53798;51.680;5.976;2022-12-20T17:22:51;7.88;;;4.88;;
66886;SDS011;53798;51.680;5.976;2022-12-20T17:25:26;9.43;;;4.50;;
66886;SDS011;53798;51.680;5.976;2022-12-20T17:27:58;14.00;;;10.15;;
66886;SDS011;53798;51.680;5.976;2022-12-20T17:30:25;10.98;;;8.60;;
66886;SDS011;53798;51.680;5.976;2022-12-20T17:32:53;11.38;;;10.18;;